createdAt,value
2018-02-02T00:00:14.310Z,74.06
2018-02-02T00:01:20.000Z,74.20
2018-02-02T00:02:25.732Z,74.26
2018-02-02T00:03:32.257Z,74.27
2018-02-02T00:04:38.770Z,74.38
2018-02-02T00:05:44.494Z,74.42
2018-02-02T00:06:50.186Z,74.56
2018-02-02T00:07:55.941Z,74.48
2018-02-02T00:09:02.401Z,74.38
2018-02-02T00:10:08.999Z,74.36
2018-02-02T00:11:14.705Z,74.41
2018-02-02T00:12:20.423Z,74.52
2018-02-02T00:13:26.249Z,74.50
2018-02-02T00:14:32.170Z,74.56
2018-02-02T00:15:37.868Z,74.54
2018-02-02T00:16:43.631Z,74.50
2018-02-02T00:17:50.098Z,74.55
2018-02-02T00:18:55.819Z,74.43
2018-02-02T00:20:01.569Z,74.39
2018-02-02T00:21:08.028Z,74.15
2018-02-02T00:22:14.494Z,74.08
2018-02-02T00:23:20.218Z,74.03
2018-02-02T00:24:26.715Z,74.23
2018-02-02T00:25:32.418Z,74.40
2018-02-02T00:26:38.892Z,74.15
2018-02-02T00:27:44.595Z,74.28
2018-02-02T00:28:50.289Z,74.27
2018-02-02T00:29:56.006Z,74.15
2018-02-02T00:31:02.476Z,74.27
2018-02-02T00:32:08.279Z,74.36
2018-02-02T00:33:14.774Z,74.35
2018-02-02T00:34:21.234Z,74.31
2018-02-02T00:35:27.712Z,74.12
2018-02-02T00:36:33.411Z,74.11
2018-02-02T00:37:38.969Z,74.21
2018-02-02T00:38:45.445Z,74.27
2018-02-02T00:39:51.151Z,74.30
2018-02-02T00:40:57.661Z,74.15
2018-02-02T00:42:03.351Z,74.16
2018-02-02T00:43:09.812Z,73.99
2018-02-02T00:44:16.268Z,74.08
2018-02-02T00:45:22.755Z,74.31
2018-02-02T00:46:28.204Z,74.29
2018-02-02T00:47:33.887Z,74.48
2018-02-02T00:48:40.360Z,74.68
2018-02-02T00:49:46.827Z,74.82
2018-02-02T00:50:58.591Z,74.72
2018-02-02T00:52:05.073Z,74.86
2018-02-02T00:53:10.768Z,74.87
2018-02-02T00:54:16.551Z,74.77
2018-02-02T00:55:23.003Z,74.86
2018-02-02T00:56:29.479Z,75.09
2018-02-02T00:57:35.835Z,75.32
2018-02-02T00:58:41.540Z,75.48
2018-02-02T00:59:47.223Z,75.51
2018-02-02T01:00:52.925Z,75.54
2018-02-02T01:01:59.422Z,75.63
2018-02-02T01:03:06.071Z,75.68
2018-02-02T01:04:11.759Z,75.74
2018-02-02T01:05:17.456Z,75.62
2018-02-02T01:06:23.143Z,75.56
2018-02-02T01:07:28.831Z,75.65
2018-02-02T01:08:34.343Z,75.72
2018-02-02T01:09:40.803Z,75.57
2018-02-02T01:10:47.275Z,75.64
2018-02-02T01:11:52.979Z,75.72
2018-02-02T01:12:58.726Z,75.82
2018-02-02T01:14:04.635Z,75.80
2018-02-02T01:15:10.328Z,75.89
2018-02-02T01:16:16.799Z,76.02
2018-02-02T01:17:22.488Z,76.03
2018-02-02T01:18:28.183Z,76.08
2018-02-02T01:19:33.907Z,76.10
2018-02-02T01:20:40.381Z,76.09
2018-02-02T01:21:46.854Z,75.98
2018-02-02T01:22:52.552Z,75.92
2018-02-02T01:23:58.269Z,75.97
2018-02-02T01:25:03.736Z,76.03
2018-02-02T01:26:10.195Z,76.28
2018-02-02T01:27:16.655Z,76.48
2018-02-02T01:28:23.129Z,76.53
2018-02-02T01:29:29.584Z,76.44
2018-02-02T01:30:35.296Z,76.45
2018-02-02T01:31:40.985Z,76.47
2018-02-02T01:32:47.450Z,76.45
2018-02-02T01:33:53.214Z,76.51
2018-02-02T01:34:58.900Z,76.58
2018-02-02T01:36:04.612Z,76.47
2018-02-02T01:37:10.301Z,76.49
2018-02-02T01:38:16.761Z,76.55
2018-02-02T01:39:23.221Z,76.40
2018-02-02T01:40:29.684Z,76.39
2018-02-02T01:41:35.403Z,76.34
2018-02-02T01:42:41.668Z,76.31
2018-02-02T01:43:48.132Z,76.32
2018-02-02T01:44:54.598Z,76.17
2018-02-02T01:46:00.276Z,76.17
2018-02-02T01:47:06.028Z,76.32
2018-02-02T01:48:21.615Z,76.48
2018-02-02T01:49:28.825Z,76.51
2018-02-02T01:50:34.560Z,76.66
2018-02-02T01:51:41.014Z,76.68
2018-02-02T01:52:47.491Z,76.77
2018-02-02T01:53:53.414Z,76.69
2018-02-02T01:54:59.887Z,76.64
2018-02-02T01:56:05.590Z,76.66
2018-02-02T01:57:11.268Z,76.61
2018-02-02T01:58:17.474Z,76.70
2018-02-02T01:59:23.158Z,76.63
2018-02-02T02:00:28.842Z,76.86
2018-02-02T02:01:34.546Z,76.86
2018-02-02T02:02:40.246Z,76.88
2018-02-02T02:03:45.950Z,77.01
2018-02-02T02:04:51.651Z,77.10
2018-02-02T02:05:58.118Z,77.15
2018-02-02T02:07:03.816Z,77.12
2018-02-02T02:08:09.503Z,77.12
2018-02-02T02:09:15.223Z,77.17
2018-02-02T02:10:21.690Z,77.07
2018-02-02T02:11:28.141Z,77.12
2018-02-02T02:12:34.599Z,77.20
2018-02-02T02:13:41.114Z,77.16
2018-02-02T02:14:46.905Z,77.22
2018-02-02T02:15:53.040Z,77.21
2018-02-02T02:16:58.731Z,77.18
2018-02-02T02:18:04.423Z,77.23
2018-02-02T02:19:10.099Z,77.31
2018-02-02T02:20:15.810Z,77.34
2018-02-02T02:21:22.275Z,77.26
2018-02-02T02:22:28.729Z,77.13
2018-02-02T02:23:34.433Z,77.12
2018-02-02T02:24:39.915Z,77.10
2018-02-02T02:25:45.631Z,77.25
2018-02-02T02:26:51.317Z,77.16
2018-02-02T02:27:57.015Z,77.10
2018-02-02T02:29:03.480Z,77.02
2018-02-02T02:30:09.943Z,76.98
2018-02-02T02:31:15.668Z,76.92
2018-02-02T02:32:22.124Z,76.82
2018-02-02T02:33:28.571Z,76.81
2018-02-02T02:34:34.267Z,76.78
2018-02-02T02:35:39.955Z,76.77
2018-02-02T02:36:45.659Z,76.88
2018-02-02T02:37:51.356Z,76.93
2018-02-02T02:38:57.803Z,76.97
2018-02-02T02:40:04.271Z,76.95
2018-02-02T02:41:10.715Z,76.99
2018-02-02T02:42:16.475Z,76.91
2018-02-02T02:43:22.931Z,76.84
2018-02-02T02:44:29.380Z,76.74
2018-02-02T02:45:35.843Z,76.74
2018-02-02T02:46:42.295Z,76.73
2018-02-02T02:47:48.780Z,76.62
2018-02-02T02:48:54.484Z,76.59
2018-02-02T02:50:00.187Z,76.71
2018-02-02T02:51:05.903Z,76.70
2018-02-02T02:52:11.617Z,76.80
2018-02-02T02:53:18.216Z,76.70
2018-02-02T02:54:23.898Z,76.65
2018-02-02T02:55:29.653Z,76.63
2018-02-02T02:56:35.499Z,76.62
2018-02-02T02:57:41.956Z,76.53
2018-02-02T02:58:48.440Z,76.50
2018-02-02T02:59:53.812Z,76.40
2018-02-02T03:00:59.511Z,76.30
2018-02-02T03:02:05.203Z,76.19
2018-02-02T03:03:11.721Z,76.19
2018-02-02T03:04:17.441Z,76.10
2018-02-02T03:05:23.139Z,76.04
2018-02-02T03:06:28.823Z,75.96
2018-02-02T03:07:34.860Z,75.95
2018-02-02T03:08:41.326Z,75.87
2018-02-02T03:09:47.040Z,75.95
2018-02-02T03:10:53.516Z,75.99
2018-02-02T03:11:59.984Z,75.94
2018-02-02T03:13:06.448Z,75.87
2018-02-02T03:14:11.480Z,75.83
2018-02-02T03:15:17.202Z,75.77
2018-02-02T03:16:23.678Z,75.79
2018-02-02T03:17:29.405Z,75.77
2018-02-02T03:18:35.847Z,75.71
2018-02-02T03:19:42.298Z,75.63
2018-02-02T03:20:48.780Z,75.57
2018-02-02T03:21:55.427Z,75.51
2018-02-02T03:23:01.900Z,75.46
2018-02-02T03:24:08.340Z,75.49
2018-02-02T03:25:14.807Z,75.48
2018-02-02T03:26:21.271Z,75.42
2018-02-02T03:27:27.731Z,75.34
2018-02-02T03:28:34.195Z,75.29
2018-02-02T03:29:39.879Z,75.32
2018-02-02T03:30:45.578Z,75.27
2018-02-02T03:31:51.296Z,75.21
2018-02-02T03:32:57.756Z,75.24
2018-02-02T03:34:03.873Z,75.17
2018-02-02T03:35:09.555Z,75.07
2018-02-02T03:36:16.011Z,75.03
2018-02-02T03:37:22.500Z,75.07
2018-02-02T03:38:28.212Z,74.98
2018-02-02T03:39:34.676Z,74.95
2018-02-02T03:40:41.133Z,74.91
2018-02-02T03:41:46.831Z,74.91
2018-02-02T03:42:52.539Z,74.92
2018-02-02T03:43:58.218Z,74.95
2018-02-02T03:45:03.692Z,74.96
2018-02-02T03:46:10.159Z,74.99
2018-02-02T03:47:15.863Z,74.98
2018-02-02T03:48:21.617Z,74.96
2018-02-02T03:49:28.185Z,74.96
2018-02-02T03:50:34.438Z,74.93
2018-02-02T03:51:40.137Z,74.96
2018-02-02T03:52:45.832Z,74.93
2018-02-02T03:53:51.611Z,74.92
2018-02-02T03:54:56.596Z,74.92
2018-02-02T03:56:02.291Z,74.97
2018-02-02T03:57:07.979Z,74.96
2018-02-02T03:58:13.724Z,74.94
2018-02-02T03:59:19.440Z,74.89
2018-02-02T04:00:25.707Z,74.93
2018-02-02T04:01:31.389Z,74.98
2018-02-02T04:02:37.094Z,74.99
2018-02-02T04:03:42.119Z,74.92
2018-02-02T04:04:47.858Z,74.83
2018-02-02T04:05:53.540Z,74.68
2018-02-02T04:06:59.235Z,74.67
2018-02-02T04:08:04.929Z,74.66
2018-02-02T04:09:10.623Z,74.63
2018-02-02T04:10:16.347Z,74.69
2018-02-02T04:11:22.042Z,74.72
2018-02-02T04:12:27.192Z,74.62
2018-02-02T04:13:32.882Z,74.64
2018-02-02T04:14:38.594Z,74.62
2018-02-02T04:15:45.072Z,74.64
2018-02-02T04:16:50.765Z,74.60
2018-02-02T04:17:56.661Z,74.66
2018-02-02T04:19:02.186Z,74.75
2018-02-02T04:20:07.895Z,74.82
2018-02-02T04:21:13.608Z,74.87
2018-02-02T04:22:19.288Z,74.79
2018-02-02T04:23:25.749Z,74.70
2018-02-02T04:24:31.455Z,74.75
2018-02-02T04:25:38.651Z,74.79
2018-02-02T04:26:45.140Z,74.68
2018-02-02T04:27:50.852Z,74.76
2018-02-02T04:28:56.405Z,74.73
2018-02-02T04:30:02.100Z,74.66
2018-02-02T04:31:08.819Z,74.64
2018-02-02T04:32:14.535Z,74.58
2018-02-02T04:33:20.998Z,74.53
2018-02-02T04:34:27.289Z,74.44
2018-02-02T04:35:34.728Z,74.36
2018-02-02T04:36:41.003Z,74.29
2018-02-02T04:37:46.531Z,74.22
2018-02-02T04:38:52.048Z,74.15
2018-02-02T04:39:58.506Z,74.10
2018-02-02T04:41:05.221Z,74.06
2018-02-02T04:42:10.921Z,74.02
2018-02-02T04:43:17.407Z,73.92
2018-02-02T04:44:23.107Z,73.87
2018-02-02T04:45:28.792Z,73.82
2018-02-02T04:46:34.478Z,73.74
2018-02-02T04:47:40.943Z,73.74
2018-02-02T04:48:47.296Z,73.73
2018-02-02T04:49:52.987Z,73.71
2018-02-02T04:50:58.678Z,73.72
2018-02-02T04:52:05.131Z,73.69
2018-02-02T04:53:11.591Z,73.60
2018-02-02T04:54:18.112Z,73.55
2018-02-02T04:55:23.567Z,73.59
2018-02-02T04:56:29.269Z,73.60
2018-02-02T04:57:35.735Z,73.59
2018-02-02T04:58:41.423Z,73.60
2018-02-02T04:59:47.920Z,73.64
2018-02-02T05:00:53.615Z,73.70
2018-02-02T05:01:59.298Z,73.72
2018-02-02T05:03:04.993Z,73.82
2018-02-02T05:04:10.687Z,73.82
2018-02-02T05:05:16.411Z,73.87
2018-02-02T05:06:22.098Z,73.97
2018-02-02T05:07:27.798Z,74.04
2018-02-02T05:08:33.494Z,74.01
2018-02-02T05:09:39.172Z,74.00
2018-02-02T05:10:44.917Z,74.01
2018-02-02T05:11:50.418Z,73.97
2018-02-02T05:12:56.872Z,73.94
2018-02-02T05:14:02.571Z,73.92
2018-02-02T05:15:08.259Z,73.99
2018-02-02T05:16:14.740Z,73.93
2018-02-02T05:17:20.476Z,73.96
2018-02-02T05:18:26.749Z,74.03
2018-02-02T05:19:32.259Z,73.96
2018-02-02T05:20:37.956Z,73.89
2018-02-02T05:21:43.679Z,73.99
2018-02-02T05:22:49.375Z,74.01
2018-02-02T05:23:55.826Z,74.00
2018-02-02T05:25:02.304Z,74.01
2018-02-02T05:26:08.782Z,74.00
2018-02-02T05:27:15.430Z,73.98
2018-02-02T05:28:21.127Z,73.94
2018-02-02T05:29:26.815Z,73.85
2018-02-02T05:30:32.506Z,73.87
2018-02-02T05:31:38.238Z,73.94
2018-02-02T05:32:43.944Z,73.98
2018-02-02T05:33:49.636Z,74.03
2018-02-02T05:34:55.328Z,74.06
2018-02-02T05:36:01.044Z,74.22
2018-02-02T05:37:07.498Z,74.22
2018-02-02T05:38:13.227Z,74.27
2018-02-02T05:39:19.687Z,74.35
2018-02-02T05:40:26.148Z,74.42
2018-02-02T05:41:31.839Z,74.48
2018-02-02T05:42:37.323Z,74.54
2018-02-02T05:43:43.801Z,74.59
2018-02-02T05:44:49.496Z,74.63
2018-02-02T05:45:55.228Z,74.73
2018-02-02T05:47:01.014Z,74.67
2018-02-02T05:48:07.464Z,74.69
2018-02-02T05:49:13.940Z,74.65
2018-02-02T05:50:19.676Z,74.63
2018-02-02T05:51:25.424Z,74.57
2018-02-02T05:52:31.119Z,74.59
2018-02-02T05:53:36.805Z,74.57
2018-02-02T05:54:42.544Z,74.57
2018-02-02T05:55:48.234Z,74.65
2018-02-02T05:56:54.694Z,74.62
2018-02-02T05:58:00.503Z,74.64
2018-02-02T05:59:06.216Z,74.61
2018-02-02T06:00:12.698Z,74.53
2018-02-02T06:01:18.204Z,74.55
2018-02-02T06:02:24.675Z,74.55
2018-02-02T06:03:30.386Z,74.50
2018-02-02T06:04:36.064Z,74.38
2018-02-02T06:05:41.794Z,74.19
2018-02-02T06:06:48.252Z,74.15
2018-02-02T06:07:53.937Z,74.10
2018-02-02T06:08:59.638Z,73.98
2018-02-02T06:10:05.344Z,73.90
2018-02-02T06:11:11.827Z,73.81
2018-02-02T06:12:17.537Z,73.80
2018-02-02T06:13:23.223Z,73.86
2018-02-02T06:14:28.932Z,73.75
2018-02-02T06:15:35.380Z,73.77
2018-02-02T06:16:41.859Z,73.71
2018-02-02T06:17:47.559Z,73.73
2018-02-02T06:18:53.248Z,73.72
2018-02-02T06:19:59.147Z,73.74
2018-02-02T06:21:04.835Z,73.74
2018-02-02T06:22:10.562Z,73.75
2018-02-02T06:23:17.050Z,73.71
2018-02-02T06:24:23.804Z,73.83
2018-02-02T06:25:30.379Z,73.87
2018-02-02T06:26:36.251Z,73.87
2018-02-02T06:27:41.993Z,73.94
2018-02-02T06:28:47.683Z,74.12
2018-02-02T06:29:54.160Z,74.19
2018-02-02T06:31:00.612Z,74.27
2018-02-02T06:32:07.069Z,74.33
2018-02-02T06:33:13.540Z,74.41
2018-02-02T06:34:19.300Z,74.57
2018-02-02T06:35:25.911Z,74.53
2018-02-02T06:36:32.389Z,74.58
2018-02-02T06:37:38.961Z,74.64
2018-02-02T06:38:44.856Z,74.75
2018-02-02T06:39:50.947Z,74.83
2018-02-02T06:40:56.676Z,74.82
2018-02-02T06:42:02.194Z,74.96
2018-02-02T06:43:07.883Z,74.98
2018-02-02T06:44:13.908Z,75.04
2018-02-02T06:45:20.069Z,75.03
2018-02-02T06:46:25.755Z,75.06
2018-02-02T06:47:31.455Z,75.05
2018-02-02T06:48:37.137Z,75.16
2018-02-02T06:49:42.907Z,75.20
2018-02-02T06:50:48.583Z,75.12
2018-02-02T06:51:54.091Z,75.07
2018-02-02T06:53:00.550Z,75.06
2018-02-02T06:54:06.995Z,75.15
2018-02-02T06:55:13.478Z,75.16
2018-02-02T06:56:19.173Z,75.17
2018-02-02T06:57:24.936Z,75.20
2018-02-02T06:58:31.387Z,75.19
2018-02-02T06:59:37.076Z,75.26
2018-02-02T07:00:42.893Z,75.22
2018-02-02T07:01:49.344Z,75.29
2018-02-02T07:02:55.807Z,75.25
2018-02-02T07:04:02.282Z,75.18
2018-02-02T07:05:07.993Z,75.16
2018-02-02T07:06:14.488Z,75.17
2018-02-02T07:07:20.210Z,75.18
2018-02-02T07:08:25.793Z,75.23
2018-02-02T07:09:31.507Z,75.23
2018-02-02T07:10:37.239Z,75.18
2018-02-02T07:11:42.964Z,75.20
2018-02-02T07:12:49.460Z,75.15
2018-02-02T07:13:55.128Z,75.12
2018-02-02T07:15:00.845Z,75.08
2018-02-02T07:16:06.563Z,75.03
2018-02-02T07:17:12.286Z,74.96
2018-02-02T07:18:19.051Z,74.91
2018-02-02T07:19:24.998Z,74.79
2018-02-02T07:20:31.012Z,74.66
2018-02-02T07:21:38.620Z,74.63
2018-02-02T07:22:45.191Z,74.58
2018-02-02T07:23:51.033Z,74.55
2018-02-02T07:24:56.878Z,74.59
2018-02-02T07:26:03.510Z,74.52
2018-02-02T07:27:10.221Z,74.50
2018-02-02T07:28:16.158Z,74.50
2018-02-02T07:29:21.349Z,74.40
2018-02-02T07:30:27.900Z,74.46
2018-02-02T07:31:33.780Z,74.46
2018-02-02T07:32:40.162Z,74.37
2018-02-02T07:33:45.946Z,74.29
2018-02-02T07:34:53.340Z,74.19
2018-02-02T07:35:59.157Z,74.08
2018-02-02T07:37:04.968Z,73.97
2018-02-02T07:38:10.726Z,73.86
2018-02-02T07:39:17.159Z,73.74
2018-02-02T07:40:23.191Z,73.63
2018-02-02T07:41:29.828Z,73.52
2018-02-02T07:42:36.442Z,73.52
2018-02-02T07:43:42.361Z,73.45
2018-02-02T07:44:48.836Z,73.27
2018-02-02T07:45:54.776Z,73.11
2018-02-02T07:47:00.813Z,73.05
2018-02-02T07:48:06.677Z,72.93
2018-02-02T07:49:13.956Z,72.78
2018-02-02T07:50:19.878Z,72.74
2018-02-02T07:51:25.870Z,72.60
2018-02-02T07:52:31.779Z,72.39
2018-02-02T07:53:37.551Z,72.15
2018-02-02T07:54:43.455Z,71.90
2018-02-02T07:55:49.988Z,71.53
2018-02-02T07:56:55.963Z,71.15
2018-02-02T07:58:01.737Z,70.82
2018-02-02T07:59:07.855Z,70.70
2018-02-02T08:00:14.037Z,70.40
2018-02-02T08:01:21.060Z,70.09
2018-02-02T08:02:27.849Z,70.02
2018-02-02T08:03:34.589Z,69.62
2018-02-02T08:04:41.170Z,69.31
2018-02-02T08:05:47.015Z,68.78
2018-02-02T08:06:53.864Z,68.60
2018-02-02T08:08:00.504Z,68.49
2018-02-02T08:09:05.752Z,68.20
2018-02-02T08:10:12.245Z,68.01
2018-02-02T08:11:18.283Z,67.67
2018-02-02T08:12:25.993Z,67.08
2018-02-02T08:13:31.988Z,67.19
2018-02-02T08:14:38.778Z,67.23
2018-02-02T08:15:46.166Z,67.18
2018-02-02T08:16:53.051Z,67.04
2018-02-02T08:18:00.890Z,66.60
2018-02-02T08:19:06.216Z,66.48
2018-02-02T08:20:12.719Z,66.26
2018-02-02T08:21:18.432Z,66.07
2018-02-02T08:22:24.964Z,65.89
2018-02-02T08:23:30.775Z,65.88
2018-02-02T08:24:36.465Z,65.82
2018-02-02T08:25:42.163Z,65.73
2018-02-02T08:26:47.845Z,65.67
2018-02-02T08:27:54.313Z,65.42
2018-02-02T08:29:00.882Z,65.42
2018-02-02T08:30:07.347Z,65.24
2018-02-02T08:31:13.498Z,65.02
2018-02-02T08:32:19.949Z,64.98
2018-02-02T08:33:25.513Z,64.92
2018-02-02T08:34:31.240Z,64.72
2018-02-02T08:35:36.937Z,64.67
2018-02-02T08:36:42.628Z,64.55
2018-02-02T08:37:47.489Z,64.29
2018-02-02T08:38:53.176Z,63.98
2018-02-02T08:39:58.931Z,63.79
2018-02-02T08:41:04.649Z,63.18
2018-02-02T08:42:11.124Z,63.05
2018-02-02T08:43:16.819Z,62.67
2018-02-02T08:44:24.021Z,62.48
2018-02-02T08:45:29.726Z,61.81
2018-02-02T08:46:35.406Z,61.41
2018-02-02T08:47:41.111Z,61.01
2018-02-02T08:48:47.564Z,60.51
2018-02-02T08:49:53.271Z,60.25
2018-02-02T08:50:58.984Z,60.12
2018-02-02T08:52:04.708Z,59.71
2018-02-02T08:53:11.163Z,59.32
2018-02-02T08:54:17.624Z,59.07
2018-02-02T08:55:24.072Z,59.03
2018-02-02T08:56:29.797Z,58.81
2018-02-02T08:57:36.268Z,58.69
2018-02-02T08:58:41.972Z,58.59
2018-02-02T08:59:48.112Z,58.65
2018-02-02T09:00:59.341Z,58.47
2018-02-02T09:02:07.680Z,58.40
2018-02-02T09:03:13.415Z,58.52
2018-02-02T09:04:19.122Z,58.57
2018-02-02T09:05:24.818Z,58.72
2018-02-02T09:06:30.531Z,58.73
2018-02-02T09:07:36.260Z,58.70
2018-02-02T09:08:42.731Z,58.71
2018-02-02T09:09:48.467Z,58.69
2018-02-02T09:10:54.982Z,58.29
2018-02-02T09:12:00.674Z,58.35
2018-02-02T09:13:06.401Z,58.48
2018-02-02T09:14:12.312Z,58.63
2018-02-02T09:15:17.995Z,58.56
2018-02-02T09:16:23.696Z,58.51
2018-02-02T09:17:29.416Z,58.32
2018-02-02T09:18:35.138Z,58.30
2018-02-02T09:19:40.819Z,58.16
2018-02-02T09:20:46.505Z,58.22
2018-02-02T09:21:54.366Z,58.20
2018-02-02T09:23:00.812Z,58.14
2018-02-02T09:24:07.320Z,57.77
2018-02-02T09:25:13.012Z,57.88
2018-02-02T09:26:19.159Z,57.68
2018-02-02T09:27:24.781Z,57.76
2018-02-02T09:28:30.479Z,57.64
2018-02-02T09:29:36.209Z,57.64
2018-02-02T09:30:41.896Z,57.62
2018-02-02T09:31:47.596Z,57.60
2018-02-02T09:32:53.295Z,57.55
2018-02-02T09:34:00.520Z,57.46
2018-02-02T09:35:06.247Z,57.20
2018-02-02T09:36:11.944Z,56.88
2018-02-02T09:37:17.640Z,56.92
2018-02-02T09:38:23.340Z,56.64
2018-02-02T09:39:29.023Z,56.44
2018-02-02T09:40:35.504Z,56.16
2018-02-02T09:41:41.225Z,55.72
2018-02-02T09:42:46.922Z,55.00
2018-02-02T09:43:53.396Z,54.32
2018-02-02T09:44:59.091Z,54.21
2018-02-02T09:46:04.878Z,54.15
2018-02-02T09:47:11.327Z,54.15
2018-02-02T09:48:17.791Z,54.07
2018-02-02T09:49:24.278Z,54.07
2018-02-02T09:50:29.965Z,53.91
2018-02-02T09:51:35.706Z,53.92
2018-02-02T09:52:41.523Z,53.81
2018-02-02T09:53:47.248Z,53.73
2018-02-02T09:54:52.929Z,53.61
2018-02-02T09:55:58.618Z,53.55
2018-02-02T09:57:04.422Z,53.44
2018-02-02T09:58:10.876Z,53.18
2018-02-02T09:59:16.571Z,53.37
2018-02-02T10:00:21.536Z,53.47
2018-02-02T10:01:27.224Z,53.53
2018-02-02T10:02:33.051Z,53.32
2018-02-02T10:03:38.737Z,53.23
2018-02-02T10:04:44.428Z,53.17
2018-02-02T10:05:50.123Z,52.91
2018-02-02T10:06:55.816Z,52.77
2018-02-02T10:08:01.851Z,52.66
2018-02-02T10:09:08.338Z,52.45
2018-02-02T10:10:14.056Z,52.61
2018-02-02T10:11:20.505Z,52.72
2018-02-02T10:12:26.974Z,52.64
2018-02-02T10:13:32.697Z,52.50
2018-02-02T10:14:39.180Z,52.40
2018-02-02T10:15:44.867Z,52.35
2018-02-02T10:16:50.561Z,52.35
2018-02-02T10:17:56.263Z,52.50
2018-02-02T10:19:01.984Z,52.59
2018-02-02T10:20:07.685Z,52.71
2018-02-02T10:21:13.433Z,52.75
2018-02-02T10:22:19.125Z,52.84
2018-02-02T10:23:25.586Z,52.87
2018-02-02T10:24:31.752Z,53.04
2018-02-02T10:25:38.212Z,53.16
2018-02-02T10:26:43.909Z,52.94
2018-02-02T10:27:49.609Z,53.23
2018-02-02T10:28:55.299Z,53.45
2018-02-02T10:30:01.042Z,53.61
2018-02-02T10:31:06.392Z,53.70
2018-02-02T10:32:12.851Z,53.88
2018-02-02T10:33:19.299Z,54.06
2018-02-02T10:34:24.979Z,54.10
2018-02-02T10:35:30.743Z,54.18
2018-02-02T10:36:36.436Z,54.21
2018-02-02T10:37:42.160Z,54.13
2018-02-02T10:38:47.874Z,54.18
2018-02-02T10:39:53.582Z,54.28
2018-02-02T10:40:59.316Z,54.31
2018-02-02T10:42:05.799Z,54.47
2018-02-02T10:43:11.522Z,54.69
2018-02-02T10:44:17.264Z,54.84
2018-02-02T10:45:22.959Z,54.86
2018-02-02T10:46:28.685Z,54.96
2018-02-02T10:47:34.375Z,54.68
2018-02-02T10:48:40.075Z,54.72
2018-02-02T10:49:45.877Z,54.92
2018-02-02T10:50:51.371Z,55.02
2018-02-02T10:51:57.652Z,55.11
2018-02-02T10:53:03.348Z,55.31
2018-02-02T10:54:10.559Z,55.54
2018-02-02T10:55:16.255Z,55.58
2018-02-02T10:56:21.946Z,55.57
2018-02-02T10:57:27.664Z,55.63
2018-02-02T10:58:34.124Z,55.76
2018-02-02T10:59:40.625Z,55.91
2018-02-02T11:00:51.661Z,56.13
2018-02-02T11:02:02.928Z,56.42
2018-02-02T11:04:57.124Z,56.44
2018-02-02T11:06:02.811Z,56.51
2018-02-02T11:07:08.503Z,56.63
2018-02-02T11:08:14.207Z,56.76
2018-02-02T11:09:19.917Z,56.94
2018-02-02T11:10:25.615Z,57.05
2018-02-02T11:11:32.096Z,57.05
2018-02-02T11:12:37.809Z,57.26
2018-02-02T11:13:44.266Z,57.46
2018-02-02T11:14:50.791Z,57.53
2018-02-02T11:15:56.487Z,57.56
2018-02-02T11:17:02.349Z,57.69
2018-02-02T11:18:10.275Z,57.79
2018-02-02T11:19:16.025Z,57.83
2018-02-02T11:20:21.737Z,57.85
2018-02-02T11:21:28.105Z,57.86
2018-02-02T11:22:36.710Z,57.86
2018-02-02T11:23:42.603Z,57.87
2018-02-02T11:24:50.190Z,57.87
2018-02-02T11:25:56.045Z,57.82
2018-02-02T11:27:01.933Z,57.81
2018-02-02T11:28:07.862Z,57.74
2018-02-02T11:29:14.703Z,57.73
2018-02-02T11:30:20.448Z,57.73
2018-02-02T11:31:26.605Z,57.74
2018-02-02T11:32:32.768Z,57.84
2018-02-02T11:33:38.592Z,57.88
2018-02-02T11:34:44.304Z,57.98
2018-02-02T11:35:51.500Z,58.17
2018-02-02T11:36:58.002Z,58.31
2018-02-02T11:38:03.768Z,58.39
2018-02-02T11:39:10.440Z,58.54
2018-02-02T11:40:16.125Z,58.65
2018-02-02T11:41:21.806Z,58.70
2018-02-02T11:42:27.532Z,58.97
2018-02-02T11:43:33.286Z,59.04
2018-02-02T11:44:38.979Z,59.02
2018-02-02T11:45:44.670Z,59.19
2018-02-02T11:46:51.890Z,59.35
2018-02-02T11:47:58.374Z,59.49
2018-02-02T11:49:04.100Z,59.54
2018-02-02T11:50:09.809Z,59.66
2018-02-02T11:51:16.285Z,59.90
2018-02-02T11:52:21.983Z,60.02
2018-02-02T11:53:27.705Z,59.98
2018-02-02T11:54:33.395Z,59.95
2018-02-02T11:55:39.889Z,59.89
2018-02-02T11:56:45.585Z,59.99
2018-02-02T11:57:52.062Z,59.93
2018-02-02T11:58:58.548Z,59.81
2018-02-02T12:00:04.249Z,59.84
2018-02-02T12:01:10.820Z,59.83
2018-02-02T12:02:16.510Z,59.89
2018-02-02T12:03:22.019Z,59.89
2018-02-02T12:04:27.736Z,60.04
2018-02-02T12:05:33.252Z,60.11
2018-02-02T12:06:39.619Z,60.15
2018-02-02T12:07:47.408Z,60.34
2018-02-02T12:08:53.883Z,60.51
2018-02-02T12:10:00.609Z,60.57
2018-02-02T12:11:06.321Z,60.58
2018-02-02T12:12:11.868Z,60.71
2018-02-02T12:13:19.291Z,60.79
2018-02-02T12:14:25.752Z,60.83
2018-02-02T12:15:32.370Z,60.93
2018-02-02T12:16:39.744Z,61.12
2018-02-02T12:17:45.569Z,61.22
2018-02-02T12:18:51.104Z,61.37
2018-02-02T12:19:58.472Z,61.43
2018-02-02T12:21:03.680Z,61.58
2018-02-02T12:22:30.876Z,61.59
2018-02-02T12:25:23.840Z,61.75
2018-02-02T12:26:33.860Z,61.77
2018-02-02T12:29:26.092Z,61.85
2018-02-02T12:30:37.102Z,61.90
2018-02-02T12:31:42.625Z,61.96
2018-02-02T12:32:55.066Z,61.91
2018-02-02T12:35:38.431Z,62.03
2018-02-02T12:36:45.481Z,62.10
2018-02-02T12:37:50.988Z,62.03
2018-02-02T12:38:57.286Z,61.92
2018-02-02T12:40:02.806Z,62.03
2018-02-02T12:41:08.324Z,62.10
2018-02-02T12:42:13.868Z,62.31
2018-02-02T12:43:19.555Z,62.33
2018-02-02T12:44:25.394Z,62.34
2018-02-02T12:45:31.133Z,62.32
2018-02-02T12:46:37.126Z,62.32
2018-02-02T12:47:43.046Z,62.34
2018-02-02T12:48:58.615Z,62.33
2018-02-02T12:50:09.323Z,62.41
2018-02-02T12:51:17.484Z,62.40
2018-02-02T12:52:23.977Z,62.39
2018-02-02T12:53:29.562Z,62.34
2018-02-02T12:54:35.321Z,62.28
2018-02-02T12:55:40.850Z,62.19
2018-02-02T12:56:46.619Z,62.22
2018-02-02T12:57:52.471Z,62.13
2018-02-02T12:58:58.293Z,62.19
2018-02-02T13:00:04.801Z,62.14
2018-02-02T13:01:10.557Z,62.02
2018-02-02T13:02:16.379Z,61.97
2018-02-02T13:03:22.106Z,62.01
2018-02-02T13:04:28.651Z,61.96
2018-02-02T13:05:35.305Z,61.96
2018-02-02T13:06:41.869Z,61.94
2018-02-02T13:07:48.431Z,61.90
2018-02-02T13:08:54.922Z,61.88
2018-02-02T13:10:01.195Z,61.83
2018-02-02T13:11:07.087Z,61.67
2018-02-02T13:12:13.993Z,61.60
2018-02-02T13:13:20.166Z,61.55
2018-02-02T13:14:26.644Z,61.42
2018-02-02T13:15:33.164Z,61.24
2018-02-02T13:16:38.848Z,61.16
2018-02-02T13:17:45.345Z,61.06
2018-02-02T13:18:51.051Z,60.93
2018-02-02T13:19:57.647Z,61.04
2018-02-02T13:21:03.398Z,60.97
2018-02-02T13:22:09.085Z,60.86
2018-02-02T13:23:15.574Z,60.70
2018-02-02T13:24:21.265Z,60.65
2018-02-02T13:25:27.022Z,60.75
2018-02-02T13:26:32.787Z,60.76
2018-02-02T13:27:39.462Z,60.70
2018-02-02T13:28:45.459Z,60.61
2018-02-02T13:29:52.058Z,60.52
2018-02-02T13:30:58.147Z,60.28
2018-02-02T13:32:03.881Z,60.00
2018-02-02T13:33:09.595Z,59.83
2018-02-02T13:34:15.884Z,59.61
2018-02-02T13:35:21.299Z,59.36
2018-02-02T13:36:26.983Z,59.24
2018-02-02T13:37:32.783Z,59.25
2018-02-02T13:38:38.603Z,59.23
2018-02-02T13:39:45.125Z,59.17
2018-02-02T13:40:50.627Z,58.98
2018-02-02T13:41:57.459Z,58.94
2018-02-02T13:43:03.972Z,59.03
2018-02-02T13:44:09.671Z,58.96
2018-02-02T13:45:15.455Z,58.90
2018-02-02T13:46:21.143Z,58.85
2018-02-02T13:47:26.987Z,58.96
2018-02-02T13:48:33.457Z,58.89
2018-02-02T13:49:38.830Z,58.75
2018-02-02T13:50:44.528Z,58.77
2018-02-02T13:51:50.298Z,58.79
2018-02-02T13:52:56.129Z,58.65
2018-02-02T13:54:02.060Z,58.73
2018-02-02T13:55:07.774Z,58.67
2018-02-02T13:56:13.487Z,58.63
2018-02-02T13:57:19.214Z,58.56
2018-02-02T13:58:24.932Z,58.58
2018-02-02T13:59:30.983Z,58.60
2018-02-02T14:00:36.688Z,58.52
2018-02-02T14:01:43.147Z,58.42
2018-02-02T14:02:49.777Z,58.33
2018-02-02T14:03:55.768Z,58.25
2018-02-02T14:05:02.124Z,58.18
2018-02-02T14:06:08.268Z,58.14
2018-02-02T14:07:14.744Z,58.17
2018-02-02T14:08:20.445Z,58.08
2018-02-02T14:09:26.195Z,58.19
2018-02-02T14:10:32.698Z,58.34
2018-02-02T14:11:38.401Z,58.46
2018-02-02T14:12:44.871Z,58.56
2018-02-02T14:13:51.340Z,58.60
2018-02-02T14:14:57.040Z,58.55
2018-02-02T14:16:02.755Z,58.51
2018-02-02T14:17:08.493Z,58.55
2018-02-02T14:18:14.267Z,58.46